sensor_id;sensor_type;location;lat;lon;timestamp;temperature;humidity
69932;DHT22;57243;52.064;5.116;2023-06-05T00:00:28;18.20;55.10
69932;DHT22;57243;52.064;5.116;2023-06-05T00:02:53;18.20;55.20
69932;DHT22;57243;52.064;5.116;2023-06-05T00:05:19;18.20;55.10
69932;DHT22;57243;52.064;5.116;2023-06-05T00:07:44;18.20;55.40
69932;DHT22;57243;52.064;5.116;2023-06-05T00:10:10;18.10;55.30
69932;DHT22;57243;52.064;5.116;2023-06-05T00:12:37;18.10;55.50
69932;DHT22;57243;52.064;5.116;2023-06-05T00:15:03;18.10;55.30
69932;DHT22;57243;52.064;5.116;2023-06-05T00:17:30;18.10;55.40
69932;DHT22;57243;52.064;5.116;2023-06-05T00:19:56;18.10;55.50
69932;DHT22;57243;52.064;5.116;2023-06-05T00:22:26;18.20;55.50
69932;DHT22;57243;52.064;5.116;2023-06-05T00:24:54;18.10;55.40
69932;DHT22;57243;52.064;5.116;2023-06-05T00:27:20;18.20;55.30
69932;DHT22;57243;52.064;5.116;2023-06-05T00:29:46;18.10;55.20
69932;DHT22;57243;52.064;5.116;2023-06-05T00:32:12;18.10;55.50
69932;DHT22;57243;52.064;5.116;2023-06-05T00:34:37;18.10;55.30
69932;DHT22;57243;52.064;5.116;2023-06-05T00:37:03;18.10;55.50
69932;DHT22;57243;52.064;5.116;2023-06-05T00:39:29;18.10;55.30
69932;DHT22;57243;52.064;5.116;2023-06-05T00:41:54;18.10;55.30
69932;DHT22;57243;52.064;5.116;2023-06-05T00:44:20;18.10;55.30
69932;DHT22;57243;52.064;5.116;2023-06-05T00:46:47;18.10;55.70
69932;DHT22;57243;52.064;5.116;2023-06-05T00:49:13;18.10;55.50
69932;DHT22;57243;52.064;5.116;2023-06-05T00:51:39;18.10;55.30
69932;DHT22;57243;52.064;5.116;2023-06-05T00:54:07;18.10;55.60
69932;DHT22;57243;52.064;5.116;2023-06-05T00:56:33;18.10;55.30
69932;DHT22;57243;52.064;5.116;2023-06-05T00:59:01;18.10;55.30
69932;DHT22;57243;52.064;5.116;2023-06-05T01:01:26;18.10;55.40
69932;DHT22;57243;52.064;5.116;2023-06-05T01:03:57;18.00;55.30
69932;DHT22;57243;52.064;5.116;2023-06-05T01:06:24;18.00;55.50
69932;DHT22;57243;52.064;5.116;2023-06-05T01:08:50;18.10;55.60
69932;DHT22;57243;52.064;5.116;2023-06-05T01:11:58;18.10;55.60
69932;DHT22;57243;52.064;5.116;2023-06-05T01:16:41;18.00;55.50
69932;DHT22;57243;52.064;5.116;2023-06-05T01:19:09;18.00;55.60
69932;DHT22;57243;52.064;5.116;2023-06-05T01:21:39;17.90;55.50
69932;DHT22;57243;52.064;5.116;2023-06-05T01:24:04;17.90;55.80
69932;DHT22;57243;52.064;5.116;2023-06-05T01:26:36;18.00;55.70
69932;DHT22;57243;52.064;5.116;2023-06-05T01:29:03;18.00;55.60
69932;DHT22;57243;52.064;5.116;2023-06-05T01:31:30;18.00;55.80
69932;DHT22;57243;52.064;5.116;2023-06-05T01:34:02;18.10;55.50
69932;DHT22;57243;52.064;5.116;2023-06-05T01:36:29;18.10;55.50
69932;DHT22;57243;52.064;5.116;2023-06-05T01:38:55;18.10;55.50
69932;DHT22;57243;52.064;5.116;2023-06-05T01:41:21;18.10;55.40
69932;DHT22;57243;52.064;5.116;2023-06-05T01:43:47;18.00;55.30
69932;DHT22;57243;52.064;5.116;2023-06-05T01:46:14;18.00;55.40
69932;DHT22;57243;52.064;5.116;2023-06-05T01:48:40;18.10;55.50
69932;DHT22;57243;52.064;5.116;2023-06-05T01:51:06;18.10;55.40
69932;DHT22;57243;52.064;5.116;2023-06-05T01:53:31;18.00;55.40
69932;DHT22;57243;52.064;5.116;2023-06-05T01:55:57;18.00;55.30
69932;DHT22;57243;52.064;5.116;2023-06-05T01:58:25;18.00;55.60
69932;DHT22;57243;52.064;5.116;2023-06-05T02:00:51;18.00;55.50
69932;DHT22;57243;52.064;5.116;2023-06-05T02:03:22;18.00;55.30
69932;DHT22;57243;52.064;5.116;2023-06-05T02:05:48;18.00;55.50
69932;DHT22;57243;52.064;5.116;2023-06-05T02:08:14;18.00;55.50
69932;DHT22;57243;52.064;5.116;2023-06-05T02:10:47;18.00;55.50
69932;DHT22;57243;52.064;5.116;2023-06-05T02:13:14;18.00;55.60
69932;DHT22;57243;52.064;5.116;2023-06-05T02:15:44;18.10;55.40
69932;DHT22;57243;52.064;5.116;2023-06-05T02:18:11;18.10;55.40
69932;DHT22;57243;52.064;5.116;2023-06-05T02:20:36;18.10;55.50
69932;DHT22;57243;52.064;5.116;2023-06-05T02:23:02;18.00;55.40
69932;DHT22;57243;52.064;5.116;2023-06-05T02:25:28;18.00;55.50
69932;DHT22;57243;52.064;5.116;2023-06-05T02:27:54;18.00;55.50
69932;DHT22;57243;52.064;5.116;2023-06-05T02:30:19;17.90;55.40
69932;DHT22;57243;52.064;5.116;2023-06-05T02:32:45;17.90;55.40
69932;DHT22;57243;52.064;5.116;2023-06-05T02:35:11;17.90;55.70
69932;DHT22;57243;52.064;5.116;2023-06-05T02:37:37;17.90;55.40
69932;DHT22;57243;52.064;5.116;2023-06-05T02:40:07;17.90;55.40
69932;DHT22;57243;52.064;5.116;2023-06-05T02:42:33;17.90;55.60
69932;DHT22;57243;52.064;5.116;2023-06-05T02:44:59;17.90;55.70
69932;DHT22;57243;52.064;5.116;2023-06-05T02:47:25;18.00;55.50
69932;DHT22;57243;52.064;5.116;2023-06-05T02:49:50;18.00;55.40
69932;DHT22;57243;52.064;5.116;2023-06-05T02:52:16;18.00;55.40
69932;DHT22;57243;52.064;5.116;2023-06-05T02:54:41;17.90;55.40
69932;DHT22;57243;52.064;5.116;2023-06-05T02:57:07;17.90;55.60
69932;DHT22;57243;52.064;5.116;2023-06-05T02:59:33;17.90;55.60
69932;DHT22;57243;52.064;5.116;2023-06-05T03:02:07;18.00;55.50
69932;DHT22;57243;52.064;5.116;2023-06-05T03:04:33;17.90;55.40
69932;DHT22;57243;52.064;5.116;2023-06-05T03:06:59;17.90;55.50
69932;DHT22;57243;52.064;5.116;2023-06-05T03:09:29;17.90;55.30
69932;DHT22;57243;52.064;5.116;2023-06-05T03:11:55;17.90;55.30
69932;DHT22;57243;52.064;5.116;2023-06-05T03:14:20;17.90;55.40
69932;DHT22;57243;52.064;5.116;2023-06-05T03:16:46;17.90;55.60
69932;DHT22;57243;52.064;5.116;2023-06-05T03:19:11;17.90;55.40
69932;DHT22;57243;52.064;5.116;2023-06-05T03:21:37;17.90;55.60
69932;DHT22;57243;52.064;5.116;2023-06-05T03:24:06;17.90;55.40
69932;DHT22;57243;52.064;5.116;2023-06-05T03:26:32;18.00;55.40
69932;DHT22;57243;52.064;5.116;2023-06-05T03:28:57;17.90;55.30
69932;DHT22;57243;52.064;5.116;2023-06-05T03:31:23;17.90;55.30
69932;DHT22;57243;52.064;5.116;2023-06-05T03:33:49;17.90;55.70
69932;DHT22;57243;52.064;5.116;2023-06-05T03:36:14;17.90;55.40
69932;DHT22;57243;52.064;5.116;2023-06-05T03:38:44;17.90;55.40
69932;DHT22;57243;52.064;5.116;2023-06-05T03:41:09;17.90;55.30
69932;DHT22;57243;52.064;5.116;2023-06-05T03:43:35;17.80;55.30
69932;DHT22;57243;52.064;5.116;2023-06-05T03:46:01;17.90;55.60
69932;DHT22;57243;52.064;5.116;2023-06-05T03:48:27;17.90;55.50
69932;DHT22;57243;52.064;5.116;2023-06-05T03:50:52;17.80;55.30
69932;DHT22;57243;52.064;5.116;2023-06-05T03:53:18;17.80;55.30
69932;DHT22;57243;52.064;5.116;2023-06-05T03:55:44;17.80;55.40
69932;DHT22;57243;52.064;5.116;2023-06-05T03:58:12;17.80;55.50
69932;DHT22;57243;52.064;5.116;2023-06-05T04:00:41;17.80;55.40
69932;DHT22;57243;52.064;5.116;2023-06-05T04:03:07;17.80;55.50
69932;DHT22;57243;52.064;5.116;2023-06-05T04:05:38;17.80;55.60
69932;DHT22;57243;52.064;5.116;2023-06-05T04:08:04;17.80;55.70
69932;DHT22;57243;52.064;5.116;2023-06-05T04:10:31;17.80;55.50
69932;DHT22;57243;52.064;5.116;2023-06-05T04:12:57;17.80;55.30
69932;DHT22;57243;52.064;5.116;2023-06-05T04:15:22;17.70;55.60
69932;DHT22;57243;52.064;5.116;2023-06-05T04:17:48;17.80;55.80
69932;DHT22;57243;52.064;5.116;2023-06-05T04:20:13;17.80;55.60
69932;DHT22;57243;52.064;5.116;2023-06-05T04:22:40;17.80;55.60
69932;DHT22;57243;52.064;5.116;2023-06-05T04:25:05;17.90;57.70
69932;DHT22;57243;52.064;5.116;2023-06-05T04:27:31;18.00;58.80
69932;DHT22;57243;52.064;5.116;2023-06-05T04:29:56;18.20;58.90
69932;DHT22;57243;52.064;5.116;2023-06-05T04:32:22;18.30;58.70
69932;DHT22;57243;52.064;5.116;2023-06-05T04:34:47;18.30;58.50
69932;DHT22;57243;52.064;5.116;2023-06-05T04:37:13;18.30;58.50
69932;DHT22;57243;52.064;5.116;2023-06-05T04:39:38;18.20;58.80
69932;DHT22;57243;52.064;5.116;2023-06-05T04:42:04;18.20;58.80
69932;DHT22;57243;52.064;5.116;2023-06-05T04:44:30;18.20;58.70
69932;DHT22;57243;52.064;5.116;2023-06-05T04:46:56;18.20;58.70
69932;DHT22;57243;52.064;5.116;2023-06-05T04:49:22;18.20;58.80
69932;DHT22;57243;52.064;5.116;2023-06-05T04:51:50;18.20;58.40
69932;DHT22;57243;52.064;5.116;2023-06-05T04:54:18;18.20;58.80
69932;DHT22;57243;52.064;5.116;2023-06-05T04:56:44;18.20;58.90
69932;DHT22;57243;52.064;5.116;2023-06-05T04:59:11;18.20;58.80
69932;DHT22;57243;52.064;5.116;2023-06-05T05:01:36;18.20;58.60
69932;DHT22;57243;52.064;5.116;2023-06-05T05:04:02;18.20;58.70
69932;DHT22;57243;52.064;5.116;2023-06-05T05:06:27;18.20;58.70
69932;DHT22;57243;52.064;5.116;2023-06-05T05:08:53;18.20;58.70
69932;DHT22;57243;52.064;5.116;2023-06-05T05:11:19;18.20;58.30
69932;DHT22;57243;52.064;5.116;2023-06-05T05:13:45;18.20;58.50
69932;DHT22;57243;52.064;5.116;2023-06-05T05:16:10;18.20;58.50
69932;DHT22;57243;52.064;5.116;2023-06-05T05:18:37;18.20;58.60
69932;DHT22;57243;52.064;5.116;2023-06-05T05:21:03;18.20;58.40
69932;DHT22;57243;52.064;5.116;2023-06-05T05:23:30;18.30;58.70
69932;DHT22;57243;52.064;5.116;2023-06-05T05:25:56;18.40;58.50
69932;DHT22;57243;52.064;5.116;2023-06-05T05:28:21;18.40;58.30
69932;DHT22;57243;52.064;5.116;2023-06-05T05:30:47;18.30;58.50
69932;DHT22;57243;52.064;5.116;2023-06-05T05:33:13;18.40;59.70
69932;DHT22;57243;52.064;5.116;2023-06-05T05:35:40;18.50;60.20
69932;DHT22;57243;52.064;5.116;2023-06-05T05:38:05;18.50;60.00
69932;DHT22;57243;52.064;5.116;2023-06-05T05:40:31;18.50;59.60
69932;DHT22;57243;52.064;5.116;2023-06-05T05:42:57;18.60;60.50
69932;DHT22;57243;52.064;5.116;2023-06-05T05:45:22;18.70;60.00
69932;DHT22;57243;52.064;5.116;2023-06-05T05:47:48;18.70;60.30
69932;DHT22;57243;52.064;5.116;2023-06-05T05:50:13;18.70;59.40
69932;DHT22;57243;52.064;5.116;2023-06-05T05:52:39;18.60;58.80
69932;DHT22;57243;52.064;5.116;2023-06-05T05:55:04;18.50;58.30
69932;DHT22;57243;52.064;5.116;2023-06-05T05:57:30;18.50;58.10
69932;DHT22;57243;52.064;5.116;2023-06-05T05:59:55;18.40;57.50
69932;DHT22;57243;52.064;5.116;2023-06-05T06:02:21;18.30;57.50
69932;DHT22;57243;52.064;5.116;2023-06-05T06:04:47;18.30;57.70
69932;DHT22;57243;52.064;5.116;2023-06-05T06:07:13;18.20;57.30
69932;DHT22;57243;52.064;5.116;2023-06-05T06:09:39;18.20;57.40
69932;DHT22;57243;52.064;5.116;2023-06-05T06:12:05;18.20;57.00
69932;DHT22;57243;52.064;5.116;2023-06-05T06:14:35;18.20;56.80
69932;DHT22;57243;52.064;5.116;2023-06-05T06:17:01;18.10;56.70
69932;DHT22;57243;52.064;5.116;2023-06-05T06:19:27;18.10;56.80
69932;DHT22;57243;52.064;5.116;2023-06-05T06:21:54;18.10;57.70
69932;DHT22;57243;52.064;5.116;2023-06-05T06:24:20;18.20;58.80
69932;DHT22;57243;52.064;5.116;2023-06-05T06:26:47;18.40;59.20
69932;DHT22;57243;52.064;5.116;2023-06-05T06:29:18;18.50;58.40
69932;DHT22;57243;52.064;5.116;2023-06-05T06:31:45;18.50;58.10
69932;DHT22;57243;52.064;5.116;2023-06-05T06:34:11;18.50;58.50
69932;DHT22;57243;52.064;5.116;2023-06-05T06:36:37;18.50;58.40
69932;DHT22;57243;52.064;5.116;2023-06-05T06:39:06;18.50;58.30
69932;DHT22;57243;52.064;5.116;2023-06-05T06:41:34;18.60;58.70
69932;DHT22;57243;52.064;5.116;2023-06-05T06:44:00;18.60;58.30
69932;DHT22;57243;52.064;5.116;2023-06-05T06:46:25;18.70;58.30
69932;DHT22;57243;52.064;5.116;2023-06-05T06:48:51;18.70;58.30
69932;DHT22;57243;52.064;5.116;2023-06-05T06:51:17;18.70;57.90
69932;DHT22;57243;52.064;5.116;2023-06-05T06:53:43;18.60;57.70
69932;DHT22;57243;52.064;5.116;2023-06-05T06:56:08;18.60;57.90
69932;DHT22;57243;52.064;5.116;2023-06-05T06:58:34;18.60;57.90
69932;DHT22;57243;52.064;5.116;2023-06-05T07:01:00;18.60;57.90
69932;DHT22;57243;52.064;5.116;2023-06-05T07:03:25;18.60;58.20
69932;DHT22;57243;52.064;5.116;2023-06-05T07:05:51;18.60;58.50
69932;DHT22;57243;52.064;5.116;2023-06-05T07:08:16;18.70;58.50
69932;DHT22;57243;52.064;5.116;2023-06-05T07:10:42;18.70;57.90
69932;DHT22;57243;52.064;5.116;2023-06-05T07:13:07;18.70;57.40
69932;DHT22;57243;52.064;5.116;2023-06-05T07:15:33;18.70;57.30
69932;DHT22;57243;52.064;5.116;2023-06-05T07:17:58;18.60;57.80
69932;DHT22;57243;52.064;5.116;2023-06-05T07:20:24;18.60;57.90
69932;DHT22;57243;52.064;5.116;2023-06-05T07:22:50;18.60;58.30
69932;DHT22;57243;52.064;5.116;2023-06-05T07:25:16;18.70;57.60
69932;DHT22;57243;52.064;5.116;2023-06-05T07:27:43;18.70;57.30
69932;DHT22;57243;52.064;5.116;2023-06-05T07:30:09;18.70;57.70
69932;DHT22;57243;52.064;5.116;2023-06-05T07:32:35;18.70;57.70
69932;DHT22;57243;52.064;5.116;2023-06-05T07:35:01;18.70;57.70
69932;DHT22;57243;52.064;5.116;2023-06-05T07:37:27;18.60;57.40
69932;DHT22;57243;52.064;5.116;2023-06-05T07:39:53;18.70;57.90
69932;DHT22;57243;52.064;5.116;2023-06-05T07:42:19;18.70;57.80
69932;DHT22;57243;52.064;5.116;2023-06-05T07:44:44;18.80;58.00
69932;DHT22;57243;52.064;5.116;2023-06-05T07:47:10;18.80;57.20
69932;DHT22;57243;52.064;5.116;2023-06-05T07:49:36;18.80;56.60
69932;DHT22;57243;52.064;5.116;2023-06-05T07:52:01;18.70;57.00
69932;DHT22;57243;52.064;5.116;2023-06-05T07:54:27;18.70;57.20
69932;DHT22;57243;52.064;5.116;2023-06-05T07:56:52;18.70;56.90
69932;DHT22;57243;52.064;5.116;2023-06-05T07:59:19;18.60;56.80
69932;DHT22;57243;52.064;5.116;2023-06-05T08:01:50;18.60;56.70
69932;DHT22;57243;52.064;5.116;2023-06-05T08:04:15;18.70;57.20
69932;DHT22;57243;52.064;5.116;2023-06-05T08:06:41;18.70;56.90
69932;DHT22;57243;52.064;5.116;2023-06-05T08:09:07;18.70;57.30
69932;DHT22;57243;52.064;5.116;2023-06-05T08:11:38;18.80;57.10
69932;DHT22;57243;52.064;5.116;2023-06-05T08:14:04;18.80;57.20
69932;DHT22;57243;52.064;5.116;2023-06-05T08:16:32;18.90;57.20
69932;DHT22;57243;52.064;5.116;2023-06-05T08:18:57;18.80;55.70
69932;DHT22;57243;52.064;5.116;2023-06-05T08:21:23;18.80;57.00
69932;DHT22;57243;52.064;5.116;2023-06-05T08:23:48;18.80;56.80
69932;DHT22;57243;52.064;5.116;2023-06-05T08:26:14;18.90;57.00
69932;DHT22;57243;52.064;5.116;2023-06-05T08:28:39;18.90;56.90
69932;DHT22;57243;52.064;5.116;2023-06-05T08:31:06;19.00;56.80
69932;DHT22;57243;52.064;5.116;2023-06-05T08:33:32;19.00;56.10
69932;DHT22;57243;52.064;5.116;2023-06-05T08:35:58;18.90;56.10
69932;DHT22;57243;52.064;5.116;2023-06-05T08:38:23;18.90;56.20
69932;DHT22;57243;52.064;5.116;2023-06-05T08:40:51;18.90;56.10
69932;DHT22;57243;52.064;5.116;2023-06-05T08:43:22;18.90;56.00
69932;DHT22;57243;52.064;5.116;2023-06-05T08:45:49;18.90;56.30
69932;DHT22;57243;52.064;5.116;2023-06-05T08:48:16;19.00;56.60
69932;DHT22;57243;52.064;5.116;2023-06-05T08:50:43;19.00;56.20
69932;DHT22;57243;52.064;5.116;2023-06-05T08:53:09;19.00;56.20
69932;DHT22;57243;52.064;5.116;2023-06-05T08:55:38;19.00;56.30
69932;DHT22;57243;52.064;5.116;2023-06-05T08:58:04;19.10;56.40
69932;DHT22;57243;52.064;5.116;2023-06-05T09:00:30;19.10;56.20
69932;DHT22;57243;52.064;5.116;2023-06-05T09:02:56;19.10;55.70
69932;DHT22;57243;52.064;5.116;2023-06-05T09:05:21;19.00;55.50
69932;DHT22;57243;52.064;5.116;2023-06-05T09:07:47;19.00;55.70
69932;DHT22;57243;52.064;5.116;2023-06-05T09:10:25;19.00;55.60
69932;DHT22;57243;52.064;5.116;2023-06-05T09:12:52;19.00;55.80
69932;DHT22;57243;52.064;5.116;2023-06-05T09:15:21;19.10;55.60
69932;DHT22;57243;52.064;5.116;2023-06-05T09:17:47;19.10;56.10
69932;DHT22;57243;52.064;5.116;2023-06-05T09:20:25;19.10;55.50
69932;DHT22;57243;52.064;5.116;2023-06-05T09:22:50;19.10;54.90
69932;DHT22;57243;52.064;5.116;2023-06-05T09:25:16;19.20;55.50
69932;DHT22;57243;52.064;5.116;2023-06-05T09:27:41;19.10;55.00
69932;DHT22;57243;52.064;5.116;2023-06-05T09:30:07;19.10;55.10
69932;DHT22;57243;52.064;5.116;2023-06-05T09:32:33;19.10;54.60
69932;DHT22;57243;52.064;5.116;2023-06-05T09:34:58;19.10;55.20
69932;DHT22;57243;52.064;5.116;2023-06-05T09:37:36;19.10;55.50
69932;DHT22;57243;52.064;5.116;2023-06-05T09:40:02;19.20;55.00
69932;DHT22;57243;52.064;5.116;2023-06-05T09:42:31;19.20;55.10
69932;DHT22;57243;52.064;5.116;2023-06-05T09:44:58;19.20;55.50
69932;DHT22;57243;52.064;5.116;2023-06-05T09:47:25;19.20;54.20
69932;DHT22;57243;52.064;5.116;2023-06-05T09:49:50;19.20;55.30
69932;DHT22;57243;52.064;5.116;2023-06-05T09:52:16;19.20;54.30
69932;DHT22;57243;52.064;5.116;2023-06-05T09:54:43;19.20;55.20
69932;DHT22;57243;52.064;5.116;2023-06-05T09:57:13;19.20;55.40
69932;DHT22;57243;52.064;5.116;2023-06-05T09:59:49;19.20;55.50
69932;DHT22;57243;52.064;5.116;2023-06-05T10:02:15;19.30;54.80
69932;DHT22;57243;52.064;5.116;2023-06-05T10:07:11;19.20;53.60
69932;DHT22;57243;52.064;5.116;2023-06-05T10:09:36;19.20;54.70
69932;DHT22;57243;52.064;5.116;2023-06-05T10:12:03;19.20;55.10
69932;DHT22;57243;52.064;5.116;2023-06-05T10:14:29;19.30;55.40
69932;DHT22;57243;52.064;5.116;2023-06-05T10:16:54;19.30;55.70
69932;DHT22;57243;52.064;5.116;2023-06-05T10:19:21;19.30;55.20
69932;DHT22;57243;52.064;5.116;2023-06-05T10:21:48;19.30;54.60
69932;DHT22;57243;52.064;5.116;2023-06-05T10:24:15;19.30;54.90
69932;DHT22;57243;52.064;5.116;2023-06-05T10:26:56;19.30;54.40
69932;DHT22;57243;52.064;5.116;2023-06-05T10:34:45;19.40;54.20
69932;DHT22;57243;52.064;5.116;2023-06-05T10:37:18;19.40;54.60
69932;DHT22;57243;52.064;5.116;2023-06-05T10:39:51;19.40;54.30
69932;DHT22;57243;52.064;5.116;2023-06-05T10:42:23;19.40;54.70
69932;DHT22;57243;52.064;5.116;2023-06-05T10:44:49;19.40;54.70
69932;DHT22;57243;52.064;5.116;2023-06-05T10:52:47;19.50;54.00
69932;DHT22;57243;52.064;5.116;2023-06-05T10:55:12;19.40;54.90
69932;DHT22;57243;52.064;5.116;2023-06-05T10:58:25;19.50;55.20
69932;DHT22;57243;52.064;5.116;2023-06-05T11:00:26;19.50;54.70
69932;DHT22;57243;52.064;5.116;2023-06-05T11:02:52;19.50;54.80
69932;DHT22;57243;52.064;5.116;2023-06-05T11:05:18;19.50;55.10
69932;DHT22;57243;52.064;5.116;2023-06-05T11:07:44;19.50;54.70
69932;DHT22;57243;52.064;5.116;2023-06-05T11:10:12;19.50;55.00
69932;DHT22;57243;52.064;5.116;2023-06-05T11:15:12;19.60;55.20
69932;DHT22;57243;52.064;5.116;2023-06-05T11:17:45;19.60;55.30
69932;DHT22;57243;52.064;5.116;2023-06-05T11:25:24;19.60;54.80
69932;DHT22;57243;52.064;5.116;2023-06-05T11:27:52;19.60;54.70
69932;DHT22;57243;52.064;5.116;2023-06-05T11:30:19;19.60;54.50
69932;DHT22;57243;52.064;5.116;2023-06-05T11:32:45;19.60;55.30
69932;DHT22;57243;52.064;5.116;2023-06-05T11:35:10;19.60;54.80
69932;DHT22;57243;52.064;5.116;2023-06-05T11:37:36;19.60;55.10
69932;DHT22;57243;52.064;5.116;2023-06-05T11:40:06;19.60;55.10
69932;DHT22;57243;52.064;5.116;2023-06-05T11:42:38;19.60;55.20
69932;DHT22;57243;52.064;5.116;2023-06-05T11:45:10;19.60;55.50
69932;DHT22;57243;52.064;5.116;2023-06-05T11:47:37;19.60;55.30
69932;DHT22;57243;52.064;5.116;2023-06-05T11:50:21;19.70;55.00
69932;DHT22;57243;52.064;5.116;2023-06-05T11:52:51;19.70;55.20
69932;DHT22;57243;52.064;5.116;2023-06-05T11:55:17;19.70;55.30
69932;DHT22;57243;52.064;5.116;2023-06-05T11:57:47;19.70;54.90
69932;DHT22;57243;52.064;5.116;2023-06-05T12:00:14;19.70;54.80
69932;DHT22;57243;52.064;5.116;2023-06-05T12:02:42;19.70;54.90
69932;DHT22;57243;52.064;5.116;2023-06-05T12:05:08;19.70;55.20
69932;DHT22;57243;52.064;5.116;2023-06-05T12:07:34;19.70;55.20
69932;DHT22;57243;52.064;5.116;2023-06-05T12:10:06;19.70;55.60
69932;DHT22;57243;52.064;5.116;2023-06-05T12:12:48;19.70;54.70
69932;DHT22;57243;52.064;5.116;2023-06-05T12:15:16;19.70;55.00
69932;DHT22;57243;52.064;5.116;2023-06-05T12:17:48;19.70;55.20
69932;DHT22;57243;52.064;5.116;2023-06-05T12:20:14;19.70;54.90
69932;DHT22;57243;52.064;5.116;2023-06-05T12:22:40;19.70;54.90
69932;DHT22;57243;52.064;5.116;2023-06-05T12:25:21;19.70;55.00
69932;DHT22;57243;52.064;5.116;2023-06-05T12:27:47;19.70;55.00
69932;DHT22;57243;52.064;5.116;2023-06-05T12:30:14;19.70;54.90
69932;DHT22;57243;52.064;5.116;2023-06-05T12:32:41;19.80;55.00
69932;DHT22;57243;52.064;5.116;2023-06-05T12:35:21;19.80;55.30
69932;DHT22;57243;52.064;5.116;2023-06-05T12:37:47;19.80;55.30
69932;DHT22;57243;52.064;5.116;2023-06-05T12:40:13;19.80;54.80
69932;DHT22;57243;52.064;5.116;2023-06-05T12:42:40;19.80;55.20
69932;DHT22;57243;52.064;5.116;2023-06-05T12:45:06;19.80;55.50
69932;DHT22;57243;52.064;5.116;2023-06-05T12:47:32;19.80;55.00
69932;DHT22;57243;52.064;5.116;2023-06-05T12:49:58;19.80;55.00
69932;DHT22;57243;52.064;5.116;2023-06-05T12:52:24;19.80;54.80
69932;DHT22;57243;52.064;5.116;2023-06-05T12:54:56;19.80;55.00
69932;DHT22;57243;52.064;5.116;2023-06-05T12:57:25;19.80;55.40
69932;DHT22;57243;52.064;5.116;2023-06-05T12:59:54;19.80;54.70
69932;DHT22;57243;52.064;5.116;2023-06-05T13:02:20;19.80;54.60
69932;DHT22;57243;52.064;5.116;2023-06-05T13:04:46;19.80;54.50
69932;DHT22;57243;52.064;5.116;2023-06-05T13:07:12;19.80;54.70
69932;DHT22;57243;52.064;5.116;2023-06-05T13:09:37;19.80;55.30
69932;DHT22;57243;52.064;5.116;2023-06-05T13:12:03;19.90;54.80
69932;DHT22;57243;52.064;5.116;2023-06-05T13:14:29;19.90;55.00
69932;DHT22;57243;52.064;5.116;2023-06-05T13:16:55;19.90;54.80
69932;DHT22;57243;52.064;5.116;2023-06-05T13:19:21;19.90;55.00
69932;DHT22;57243;52.064;5.116;2023-06-05T13:21:47;19.90;54.50
69932;DHT22;57243;52.064;5.116;2023-06-05T13:24:12;19.80;54.60
69932;DHT22;57243;52.064;5.116;2023-06-05T13:26:38;19.80;54.70
69932;DHT22;57243;52.064;5.116;2023-06-05T13:29:04;19.80;54.70
69932;DHT22;57243;52.064;5.116;2023-06-05T13:31:29;19.80;54.50
69932;DHT22;57243;52.064;5.116;2023-06-05T13:33:56;19.80;54.80
69932;DHT22;57243;52.064;5.116;2023-06-05T13:36:21;19.80;54.90
69932;DHT22;57243;52.064;5.116;2023-06-05T13:38:48;19.80;54.90
69932;DHT22;57243;52.064;5.116;2023-06-05T13:41:14;19.80;54.30
69932;DHT22;57243;52.064;5.116;2023-06-05T13:43:40;19.80;54.50
69932;DHT22;57243;52.064;5.116;2023-06-05T13:46:05;19.80;54.50
69932;DHT22;57243;52.064;5.116;2023-06-05T13:48:30;19.80;54.50
69932;DHT22;57243;52.064;5.116;2023-06-05T13:50:56;19.80;54.80
69932;DHT22;57243;52.064;5.116;2023-06-05T13:53:23;19.80;54.40
69932;DHT22;57243;52.064;5.116;2023-06-05T13:55:48;19.80;54.60
69932;DHT22;57243;52.064;5.116;2023-06-05T13:58:13;19.80;54.60
69932;DHT22;57243;52.064;5.116;2023-06-05T14:00:40;19.80;54.50
69932;DHT22;57243;52.064;5.116;2023-06-05T14:03:10;19.80;54.40
69932;DHT22;57243;52.064;5.116;2023-06-05T14:05:36;19.80;54.40
69932;DHT22;57243;52.064;5.116;2023-06-05T14:08:01;19.90;54.10
69932;DHT22;57243;52.064;5.116;2023-06-05T14:10:27;19.80;54.30
69932;DHT22;57243;52.064;5.116;2023-06-05T14:12:53;19.80;54.40
69932;DHT22;57243;52.064;5.116;2023-06-05T14:15:19;19.80;54.40
69932;DHT22;57243;52.064;5.116;2023-06-05T14:17:45;19.80;54.70
69932;DHT22;57243;52.064;5.116;2023-06-05T14:20:11;19.80;54.60
69932;DHT22;57243;52.064;5.116;2023-06-05T14:22:37;19.80;54.40
69932;DHT22;57243;52.064;5.116;2023-06-05T14:25:03;19.80;54.20
69932;DHT22;57243;52.064;5.116;2023-06-05T14:27:30;19.80;54.60
69932;DHT22;57243;52.064;5.116;2023-06-05T14:29:55;19.80;54.60
69932;DHT22;57243;52.064;5.116;2023-06-05T14:32:21;19.90;54.40
69932;DHT22;57243;52.064;5.116;2023-06-05T14:34:46;19.90;54.60
69932;DHT22;57243;52.064;5.116;2023-06-05T14:37:12;19.90;54.60
69932;DHT22;57243;52.064;5.116;2023-06-05T14:39:38;19.90;54.80
69932;DHT22;57243;52.064;5.116;2023-06-05T14:42:03;19.90;55.10
69932;DHT22;57243;52.064;5.116;2023-06-05T14:44:29;19.90;54.60
69932;DHT22;57243;52.064;5.116;2023-06-05T14:46:54;19.90;54.70
69932;DHT22;57243;52.064;5.116;2023-06-05T14:49:23;19.90;54.90
69932;DHT22;57243;52.064;5.116;2023-06-05T14:51:49;19.90;54.70
69932;DHT22;57243;52.064;5.116;2023-06-05T14:54:14;20.00;54.30
69932;DHT22;57243;52.064;5.116;2023-06-05T14:56:40;19.90;54.30
69932;DHT22;57243;52.064;5.116;2023-06-05T14:59:05;19.90;54.30
69932;DHT22;57243;52.064;5.116;2023-06-05T15:01:31;19.90;54.00
69932;DHT22;57243;52.064;5.116;2023-06-05T15:03:57;19.90;54.50
69932;DHT22;57243;52.064;5.116;2023-06-05T15:06:22;19.90;54.30
69932;DHT22;57243;52.064;5.116;2023-06-05T15:08:48;19.90;54.30
69932;DHT22;57243;52.064;5.116;2023-06-05T15:11:13;19.90;54.80
69932;DHT22;57243;52.064;5.116;2023-06-05T15:13:39;19.90;54.40
69932;DHT22;57243;52.064;5.116;2023-06-05T15:16:04;19.90;54.30
69932;DHT22;57243;52.064;5.116;2023-06-05T15:18:30;19.90;54.80
69932;DHT22;57243;52.064;5.116;2023-06-05T15:20:55;19.90;54.70
69932;DHT22;57243;52.064;5.116;2023-06-05T15:23:21;19.90;54.80
69932;DHT22;57243;52.064;5.116;2023-06-05T15:25:46;20.00;54.80
69932;DHT22;57243;52.064;5.116;2023-06-05T15:28:12;19.90;54.30
69932;DHT22;57243;52.064;5.116;2023-06-05T15:30:38;19.90;54.80
69932;DHT22;57243;52.064;5.116;2023-06-05T15:33:03;20.00;54.90
69932;DHT22;57243;52.064;5.116;2023-06-05T15:35:29;20.00;54.50
69932;DHT22;57243;52.064;5.116;2023-06-05T15:37:55;20.00;54.50
69932;DHT22;57243;52.064;5.116;2023-06-05T15:40:20;19.90;54.70
69932;DHT22;57243;52.064;5.116;2023-06-05T15:42:46;19.90;54.90
69932;DHT22;57243;52.064;5.116;2023-06-05T15:45:13;19.90;54.60
69932;DHT22;57243;52.064;5.116;2023-06-05T15:47:40;19.90;55.00
69932;DHT22;57243;52.064;5.116;2023-06-05T15:50:06;19.90;54.90